sensor_id;sensor_type;location;lat;lon;timestamp;pressure;altitude;pressure_sealevel;temperature;humidity
22181;BME280;11256;50.830;12.834;2023-07-30T00:00:08;97041.91;;;20.24;60.07
22181;BME280;11256;50.830;12.834;2023-07-30T00:05:12;97044.66;;;20.24;59.71
22181;BME280;11256;50.830;12.834;2023-07-30T00:10:12;97047.25;;;20.17;59.98
22181;BME280;11256;50.830;12.834;2023-07-30T00:15:12;97040.84;;;20.13;60.22
22181;BME280;11256;50.830;12.834;2023-07-30T00:20:13;97038.53;;;20.15;60.37
22181;BME280;11256;50.830;12.834;2023-07-30T00:25:13;97037.66;;;20.11;60.46
22181;BME280;11256;50.830;12.834;2023-07-30T00:30:14;97035.69;;;20.11;60.78
22181;BME280;11256;50.830;12.834;2023-07-30T00:35:15;97033.69;;;20.08;60.57
22181;BME280;11256;50.830;12.834;2023-07-30T00:40:17;97046.34;;;20.13;60.89
22181;BME280;11256;50.830;12.834;2023-07-30T00:45:18;97046.34;;;20.13;61.12
22181;BME280;11256;50.830;12.834;2023-07-30T00:50:18;97040.84;;;20.13;61.35
22181;BME280;11256;50.830;12.834;2023-07-30T00:55:18;97036.94;;;20.14;61.40
22181;BME280;11256;50.830;12.834;2023-07-30T01:00:19;97033.56;;;20.05;60.91
22181;BME280;11256;50.830;12.834;2023-07-30T01:05:20;97041.34;;;20.03;61.46
22181;BME280;11256;50.830;12.834;2023-07-30T01:10:21;97037.63;;;19.95;61.29
22181;BME280;11256;50.830;12.834;2023-07-30T01:15:22;97036.41;;;19.93;61.77
22181;BME280;11256;50.830;12.834;2023-07-30T01:20:23;97046.28;;;19.94;61.67
22181;BME280;11256;50.830;12.834;2023-07-30T01:25:24;97052.72;;;19.86;61.81
22181;BME280;11256;50.830;12.834;2023-07-30T01:30:37;97055.06;;;19.84;61.99
22181;BME280;11256;50.830;12.834;2023-07-30T01:35:41;97060.34;;;19.77;61.94
22181;BME280;11256;50.830;12.834;2023-07-30T01:40:43;97064.25;;;19.76;61.86
22181;BME280;11256;50.830;12.834;2023-07-30T01:45:43;97048.75;;;19.68;62.05
22181;BME280;11256;50.830;12.834;2023-07-30T01:50:43;97037.28;;;19.66;62.17
22181;BME280;11256;50.830;12.834;2023-07-30T01:55:47;97043.50;;;19.63;62.75
22181;BME280;11256;50.830;12.834;2023-07-30T02:00:47;97034.63;;;19.54;61.95
22181;BME280;11256;50.830;12.834;2023-07-30T02:05:48;97032.22;;;19.52;63.05
22181;BME280;11256;50.830;12.834;2023-07-30T02:10:55;97036.03;;;19.48;62.19
22181;BME280;11256;50.830;12.834;2023-07-30T02:15:56;97040.75;;;19.47;63.41
22181;BME280;11256;50.830;12.834;2023-07-30T02:20:57;97047.03;;;19.48;63.36
22181;BME280;11256;50.830;12.834;2023-07-30T02:25:57;97037.81;;;19.40;63.02
22181;BME280;11256;50.830;12.834;2023-07-30T02:30:58;97035.41;;;19.39;63.59
22181;BME280;11256;50.830;12.834;2023-07-30T02:35:58;97045.28;;;19.40;63.57
22181;BME280;11256;50.830;12.834;2023-07-30T02:40:58;97045.97;;;19.37;63.34
22181;BME280;11256;50.830;12.834;2023-07-30T02:45:59;97035.22;;;19.32;63.81
22181;BME280;11256;50.830;12.834;2023-07-30T02:50:59;97033.97;;;19.29;63.97
22181;BME280;11256;50.830;12.834;2023-07-30T02:55:59;97027.16;;;19.23;64.05
22181;BME280;11256;50.830;12.834;2023-07-30T03:01:07;97037.78;;;19.25;64.45
22181;BME280;11256;50.830;12.834;2023-07-30T03:06:07;97045.59;;;19.23;64.24
22181;BME280;11256;50.830;12.834;2023-07-30T03:11:08;97040.56;;;19.13;64.20
22181;BME280;11256;50.830;12.834;2023-07-30T03:16:09;97052.25;;;19.10;64.54
22181;BME280;11256;50.830;12.834;2023-07-30T03:21:09;97047.47;;;19.07;64.74
22181;BME280;11256;50.830;12.834;2023-07-30T03:26:11;97042.66;;;19.04;64.85
22181;BME280;11256;50.830;12.834;2023-07-30T03:31:11;97046.47;;;18.99;64.71
22181;BME280;11256;50.830;12.834;2023-07-30T03:36:13;97047.50;;;18.95;64.47
22181;BME280;11256;50.830;12.834;2023-07-30T03:41:13;97049.63;;;18.86;65.75
22181;BME280;11256;50.830;12.834;2023-07-30T03:46:13;97034.06;;;18.78;64.36
22181;BME280;11256;50.830;12.834;2023-07-30T03:51:14;97042.31;;;18.78;64.76
22181;BME280;11256;50.830;12.834;2023-07-30T03:56:15;97046.66;;;18.79;64.67
22181;BME280;11256;50.830;12.834;2023-07-30T04:01:15;97055.16;;;18.74;64.65
22181;BME280;11256;50.830;12.834;2023-07-30T04:06:16;97048.19;;;18.76;65.15
22181;BME280;11256;50.830;12.834;2023-07-30T04:11:16;97055.03;;;18.82;65.49
22181;BME280;11256;50.830;12.834;2023-07-30T04:16:16;97058.44;;;18.79;65.32
22181;BME280;11256;50.830;12.834;2023-07-30T04:21:17;97063.34;;;18.86;65.03
22181;BME280;11256;50.830;12.834;2023-07-30T04:26:17;97060.03;;;18.80;65.01
22181;BME280;11256;50.830;12.834;2023-07-30T04:31:18;97069.09;;;18.81;65.13
22181;BME280;11256;50.830;12.834;2023-07-30T04:36:18;97078.47;;;18.80;64.91
22181;BME280;11256;50.830;12.834;2023-07-30T04:41:21;97076.84;;;18.79;64.82
22181;BME280;11256;50.830;12.834;2023-07-30T04:46:28;97080.06;;;18.81;67.30
22181;BME280;11256;50.830;12.834;2023-07-30T04:51:30;97086.72;;;18.80;66.51
22181;BME280;11256;50.830;12.834;2023-07-30T04:56:30;97087.59;;;18.84;66.30
22181;BME280;11256;50.830;12.834;2023-07-30T05:01:30;97082.34;;;18.91;65.51
22181;BME280;11256;50.830;12.834;2023-07-30T05:06:31;97085.38;;;19.01;65.56
22181;BME280;11256;50.830;12.834;2023-07-30T05:11:33;97085.78;;;19.15;65.97
22181;BME280;11256;50.830;12.834;2023-07-30T05:16:33;97095.06;;;19.23;66.18
22181;BME280;11256;50.830;12.834;2023-07-30T05:21:33;97081.75;;;19.25;66.47
22181;BME280;11256;50.830;12.834;2023-07-30T05:26:34;97092.44;;;19.42;66.65
22181;BME280;11256;50.830;12.834;2023-07-30T05:31:34;97095.81;;;19.51;67.62
22181;BME280;11256;50.830;12.834;2023-07-30T05:36:35;97101.25;;;19.63;67.50
22181;BME280;11256;50.830;12.834;2023-07-30T05:41:35;97112.09;;;19.71;67.40
22181;BME280;11256;50.830;12.834;2023-07-30T05:46:36;97111.66;;;19.85;68.27
22181;BME280;11256;50.830;12.834;2023-07-30T05:51:36;97124.34;;;19.89;68.77
22181;BME280;11256;50.830;12.834;2023-07-30T05:56:36;97124.69;;;19.88;68.84
22181;BME280;11256;50.830;12.834;2023-07-30T06:01:37;97121.25;;;19.91;68.56
22181;BME280;11256;50.830;12.834;2023-07-30T06:06:37;97116.91;;;19.90;68.84
22181;BME280;11256;50.830;12.834;2023-07-30T06:11:37;97133.84;;;19.92;68.59
22181;BME280;11256;50.830;12.834;2023-07-30T06:16:38;97138.13;;;20.05;68.22
22181;BME280;11256;50.830;12.834;2023-07-30T06:21:42;97145.41;;;20.13;68.50
22181;BME280;11256;50.830;12.834;2023-07-30T06:26:42;97137.72;;;20.18;69.16
22181;BME280;11256;50.830;12.834;2023-07-30T06:31:43;97141.88;;;20.28;69.18
22181;BME280;11256;50.830;12.834;2023-07-30T06:36:43;97157.41;;;20.51;70.14
22181;BME280;11256;50.830;12.834;2023-07-30T06:41:43;97162.47;;;20.84;71.56
22181;BME280;11256;50.830;12.834;2023-07-30T06:46:45;97162.03;;;20.97;70.74
22181;BME280;11256;50.830;12.834;2023-07-30T06:51:46;97171.41;;;21.12;70.34
22181;BME280;11256;50.830;12.834;2023-07-30T06:56:46;97164.44;;;21.18;69.39
22181;BME280;11256;50.830;12.834;2023-07-30T07:01:46;97174.03;;;21.24;68.89
22181;BME280;11256;50.830;12.834;2023-07-30T07:06:47;97176.50;;;21.29;68.06
22181;BME280;11256;50.830;12.834;2023-07-30T07:11:47;97174.19;;;21.31;67.55
22181;BME280;11256;50.830;12.834;2023-07-30T07:16:47;97177.66;;;21.28;66.92
22181;BME280;11256;50.830;12.834;2023-07-30T07:21:48;97180.13;;;21.33;66.99
22181;BME280;11256;50.830;12.834;2023-07-30T07:26:49;97166.88;;;21.38;68.65
22181;BME280;11256;50.830;12.834;2023-07-30T07:31:49;97179.28;;;21.48;69.70
22181;BME280;11256;50.830;12.834;2023-07-30T07:36:49;97181.00;;;21.56;68.86
22181;BME280;11256;50.830;12.834;2023-07-30T07:41:50;97183.66;;;21.68;69.79
22181;BME280;11256;50.830;12.834;2023-07-30T07:46:50;97179.16;;;21.79;68.44
22181;BME280;11256;50.830;12.834;2023-07-30T07:51:50;97174.53;;;21.86;68.23
22181;BME280;11256;50.830;12.834;2023-07-30T07:56:51;97175.84;;;21.92;67.66
22181;BME280;11256;50.830;12.834;2023-07-30T08:01:51;97192.31;;;22.08;68.58
22181;BME280;11256;50.830;12.834;2023-07-30T08:06:51;97179.97;;;22.24;69.33
22181;BME280;11256;50.830;12.834;2023-07-30T08:11:52;97159.88;;;22.72;70.02
22181;BME280;11256;50.830;12.834;2023-07-30T08:16:52;97166.41;;;23.39;70.28
22181;BME280;11256;50.830;12.834;2023-07-30T08:21:52;97179.69;;;24.65;68.76
22181;BME280;11256;50.830;12.834;2023-07-30T08:26:53;97187.13;;;25.83;65.49
22181;BME280;11256;50.830;12.834;2023-07-30T08:31:53;97169.00;;;26.35;62.43
22181;BME280;11256;50.830;12.834;2023-07-30T08:36:54;97175.44;;;26.60;59.74
22181;BME280;11256;50.830;12.834;2023-07-30T08:41:54;97165.41;;;27.43;60.96
22181;BME280;11256;50.830;12.834;2023-07-30T08:46:54;97155.78;;;28.40;59.31
22181;BME280;11256;50.830;12.834;2023-07-30T08:51:55;97167.41;;;29.27;56.09
22181;BME280;11256;50.830;12.834;2023-07-30T08:56:56;97178.13;;;29.32;53.41
22181;BME280;11256;50.830;12.834;2023-07-30T09:01:57;97175.19;;;29.09;52.51
22181;BME280;11256;50.830;12.834;2023-07-30T09:07:00;97174.94;;;28.86;52.51
22181;BME280;11256;50.830;12.834;2023-07-30T09:12:00;97174.81;;;28.56;52.71
22181;BME280;11256;50.830;12.834;2023-07-30T09:17:01;97179.81;;;28.17;52.88
22181;BME280;11256;50.830;12.834;2023-07-30T09:22:05;97173.09;;;28.04;53.39
22181;BME280;11256;50.830;12.834;2023-07-30T09:27:06;97173.00;;;28.25;54.27
22181;BME280;11256;50.830;12.834;2023-07-30T09:32:07;97162.81;;;28.59;53.72
22181;BME280;11256;50.830;12.834;2023-07-30T09:37:07;97154.47;;;29.06;50.35
22181;BME280;11256;50.830;12.834;2023-07-30T09:42:08;97168.44;;;29.40;50.41
22181;BME280;11256;50.830;12.834;2023-07-30T09:47:09;97166.41;;;29.81;50.45
22181;BME280;11256;50.830;12.834;2023-07-30T09:52:11;97178.66;;;30.24;49.02
22181;BME280;11256;50.830;12.834;2023-07-30T09:57:13;97171.47;;;30.76;46.86
22181;BME280;11256;50.830;12.834;2023-07-30T10:02:14;97173.06;;;31.00;46.41
22181;BME280;11256;50.830;12.834;2023-07-30T10:07:17;97167.41;;;31.26;45.84
22181;BME280;11256;50.830;12.834;2023-07-30T10:12:22;97169.78;;;31.28;44.63
22181;BME280;11256;50.830;12.834;2023-07-30T10:17:23;97167.53;;;31.19;45.50
22181;BME280;11256;50.830;12.834;2023-07-30T10:22:24;97165.28;;;31.11;45.86
22181;BME280;11256;50.830;12.834;2023-07-30T10:27:27;97171.03;;;31.00;44.72
22181;BME280;11256;50.830;12.834;2023-07-30T10:32:38;97162.38;;;30.68;44.43
22181;BME280;11256;50.830;12.834;2023-07-30T10:37:45;97150.34;;;30.45;44.52
22181;BME280;11256;50.830;12.834;2023-07-30T10:42:46;97159.41;;;30.52;44.17
22181;BME280;11256;50.830;12.834;2023-07-30T10:47:47;97152.03;;;30.39;44.45
22181;BME280;11256;50.830;12.834;2023-07-30T10:52:47;97146.31;;;30.23;45.06
22181;BME280;11256;50.830;12.834;2023-07-30T10:57:48;97143.66;;;30.09;45.47
22181;BME280;11256;50.830;12.834;2023-07-30T11:02:54;97135.69;;;30.07;46.02
22181;BME280;11256;50.830;12.834;2023-07-30T11:07:54;97136.97;;;30.03;45.05
22181;BME280;11256;50.830;12.834;2023-07-30T11:12:57;97139.06;;;29.95;45.00
22181;BME280;11256;50.830;12.834;2023-07-30T11:17:57;97134.75;;;29.91;45.65
22181;BME280;11256;50.830;12.834;2023-07-30T11:22:58;97137.25;;;30.12;43.04
22181;BME280;11256;50.830;12.834;2023-07-30T11:27:58;97129.50;;;29.93;43.91
22181;BME280;11256;50.830;12.834;2023-07-30T11:32:59;97131.25;;;29.83;45.67
22181;BME280;11256;50.830;12.834;2023-07-30T11:37:59;97136.41;;;29.85;45.00
22181;BME280;11256;50.830;12.834;2023-07-30T11:43:00;97122.47;;;29.81;45.43
22181;BME280;11256;50.830;12.834;2023-07-30T11:48:08;97123.38;;;29.75;45.81
22181;BME280;11256;50.830;12.834;2023-07-30T11:53:09;97131.56;;;29.89;45.65
22181;BME280;11256;50.830;12.834;2023-07-30T11:58:11;97128.69;;;29.96;44.97
22181;BME280;11256;50.830;12.834;2023-07-30T12:03:13;97117.81;;;30.01;44.63
22181;BME280;11256;50.830;12.834;2023-07-30T12:08:16;97109.31;;;30.08;45.00
22181;BME280;11256;50.830;12.834;2023-07-30T12:13:18;97105.44;;;30.29;43.86
22181;BME280;11256;50.830;12.834;2023-07-30T12:18:20;97109.50;;;30.51;43.70
22181;BME280;11256;50.830;12.834;2023-07-30T12:23:21;97104.41;;;30.69;43.39
22181;BME280;11256;50.830;12.834;2023-07-30T12:28:22;97114.03;;;31.10;41.61
22181;BME280;11256;50.830;12.834;2023-07-30T12:33:22;97112.84;;;30.88;40.68
22181;BME280;11256;50.830;12.834;2023-07-30T12:38:22;97107.53;;;31.17;42.46
22181;BME280;11256;50.830;12.834;2023-07-30T12:43:23;97097.78;;;31.25;42.51
22181;BME280;11256;50.830;12.834;2023-07-30T12:48:24;97094.88;;;31.32;42.59
22181;BME280;11256;50.830;12.834;2023-07-30T12:53:24;97094.91;;;31.48;40.27
22181;BME280;11256;50.830;12.834;2023-07-30T12:58:25;97078.25;;;31.41;42.14
22181;BME280;11256;50.830;12.834;2023-07-30T13:03:26;97090.25;;;31.41;42.27
22181;BME280;11256;50.830;12.834;2023-07-30T13:08:26;97090.63;;;31.43;41.31
22181;BME280;11256;50.830;12.834;2023-07-30T13:13:26;97090.19;;;31.45;40.45
22181;BME280;11256;50.830;12.834;2023-07-30T13:18:27;97080.63;;;31.23;41.71
22181;BME280;11256;50.830;12.834;2023-07-30T13:23:28;97075.63;;;31.11;42.50
22181;BME280;11256;50.830;12.834;2023-07-30T13:28:29;97067.84;;;30.99;41.87
22181;BME280;11256;50.830;12.834;2023-07-30T13:33:29;97064.53;;;30.84;41.87
22181;BME280;11256;50.830;12.834;2023-07-30T13:38:30;97068.25;;;30.78;42.03
22181;BME280;11256;50.830;12.834;2023-07-30T13:43:30;97105.06;;;30.76;41.53
22181;BME280;11256;50.830;12.834;2023-07-30T13:48:30;97114.91;;;30.61;41.72
22181;BME280;11256;50.830;12.834;2023-07-30T13:53:31;97140.31;;;30.47;41.58
22181;BME280;11256;50.830;12.834;2023-07-30T13:58:31;97180.59;;;29.97;44.91
22181;BME280;11256;50.830;12.834;2023-07-30T14:03:32;97197.81;;;29.58;47.56
22181;BME280;11256;50.830;12.834;2023-07-30T14:08:32;97197.22;;;29.37;46.82
22181;BME280;11256;50.830;12.834;2023-07-30T14:13:32;97199.94;;;29.03;46.24
22181;BME280;11256;50.830;12.834;2023-07-30T14:18:33;97190.94;;;28.78;46.34
22181;BME280;11256;50.830;12.834;2023-07-30T14:23:33;97191.88;;;28.61;48.47
22181;BME280;11256;50.830;12.834;2023-07-30T14:28:34;97182.84;;;28.47;47.86
22181;BME280;11256;50.830;12.834;2023-07-30T14:33:34;97172.50;;;28.37;49.39
22181;BME280;11256;50.830;12.834;2023-07-30T14:38:35;97170.25;;;28.18;48.94
22181;BME280;11256;50.830;12.834;2023-07-30T14:43:35;97173.91;;;28.04;49.17
22181;BME280;11256;50.830;12.834;2023-07-30T14:48:36;97165.59;;;27.94;49.73
22181;BME280;11256;50.830;12.834;2023-07-30T14:53:36;97178.41;;;27.77;50.66
22181;BME280;11256;50.830;12.834;2023-07-30T14:58:37;97177.59;;;27.77;50.20
22181;BME280;11256;50.830;12.834;2023-07-30T15:03:37;97178.84;;;27.65;50.59
22181;BME280;11256;50.830;12.834;2023-07-30T15:08:37;97192.78;;;27.65;50.16
22181;BME280;11256;50.830;12.834;2023-07-30T15:13:38;97203.16;;;27.58;50.51
22181;BME280;11256;50.830;12.834;2023-07-30T15:18:38;97194.44;;;27.42;50.93
22181;BME280;11256;50.830;12.834;2023-07-30T15:23:38;97190.47;;;27.36;50.88
22181;BME280;11256;50.830;12.834;2023-07-30T15:28:40;97182.56;;;27.24;51.25
22181;BME280;11256;50.830;12.834;2023-07-30T15:33:40;97202.44;;;27.22;51.41
22181;BME280;11256;50.830;12.834;2023-07-30T15:38:40;97228.69;;;27.00;52.37
22181;BME280;11256;50.830;12.834;2023-07-30T15:43:41;97234.66;;;26.92;51.03
22181;BME280;11256;50.830;12.834;2023-07-30T15:48:41;97254.91;;;26.85;50.56
22181;BME280;11256;50.830;12.834;2023-07-30T15:53:42;97256.50;;;26.76;50.41
22181;BME280;11256;50.830;12.834;2023-07-30T15:58:44;97273.19;;;26.69;50.59
22181;BME280;11256;50.830;12.834;2023-07-30T16:03:44;97281.03;;;26.49;49.89
22181;BME280;11256;50.830;12.834;2023-07-30T16:08:44;97284.59;;;26.43;48.76
22181;BME280;11256;50.830;12.834;2023-07-30T16:13:45;97295.63;;;26.18;49.50
22181;BME280;11256;50.830;12.834;2023-07-30T16:18:46;97300.38;;;26.11;49.01
22181;BME280;11256;50.830;12.834;2023-07-30T16:23:47;97300.72;;;25.99;49.04
22181;BME280;11256;50.830;12.834;2023-07-30T16:28:47;97297.84;;;25.88;48.57
22181;BME280;11256;50.830;12.834;2023-07-30T16:33:48;97304.19;;;25.82;48.84
22181;BME280;11256;50.830;12.834;2023-07-30T16:38:48;97296.97;;;25.74;48.59
22181;BME280;11256;50.830;12.834;2023-07-30T16:43:48;97308.09;;;25.74;47.96
22181;BME280;11256;50.830;12.834;2023-07-30T16:48:49;97313.13;;;25.58;48.11
22181;BME280;11256;50.830;12.834;2023-07-30T16:53:49;97311.09;;;25.48;47.88
22181;BME280;11256;50.830;12.834;2023-07-30T16:58:50;97317.00;;;25.43;47.82
22181;BME280;11256;50.830;12.834;2023-07-30T17:03:50;97316.91;;;25.29;47.62
22181;BME280;11256;50.830;12.834;2023-07-30T17:08:50;97295.47;;;25.26;47.35
22181;BME280;11256;50.830;12.834;2023-07-30T17:13:51;97304.06;;;25.14;46.97
22181;BME280;11256;50.830;12.834;2023-07-30T17:18:54;97306.34;;;25.05;46.50
22181;BME280;11256;50.830;12.834;2023-07-30T17:23:54;97314.97;;;24.93;46.35
22181;BME280;11256;50.830;12.834;2023-07-30T17:28:55;97314.06;;;24.82;46.40
22181;BME280;11256;50.830;12.834;2023-07-30T17:33:55;97320.34;;;24.75;46.13
22181;BME280;11256;50.830;12.834;2023-07-30T17:38:55;97328.19;;;24.66;46.41
22181;BME280;11256;50.830;12.834;2023-07-30T17:43:56;97325.66;;;24.54;46.36
22181;BME280;11256;50.830;12.834;2023-07-30T17:48:57;97334.28;;;24.46;46.56
22181;BME280;11256;50.830;12.834;2023-07-30T17:53:57;97337.75;;;24.39;46.27
22181;BME280;11256;50.830;12.834;2023-07-30T17:58:58;97338.06;;;24.31;46.53
22181;BME280;11256;50.830;12.834;2023-07-30T18:03:58;97346.13;;;24.13;46.73
22181;BME280;11256;50.830;12.834;2023-07-30T18:08:59;97348.78;;;24.03;46.98
22181;BME280;11256;50.830;12.834;2023-07-30T18:14:00;97349.44;;;23.93;47.03
22181;BME280;11256;50.830;12.834;2023-07-30T18:19:00;97350.03;;;23.83;47.41
22181;BME280;11256;50.830;12.834;2023-07-30T18:24:00;97355.34;;;23.69;47.32
22181;BME280;11256;50.830;12.834;2023-07-30T18:29:01;97379.44;;;23.65;47.49
22181;BME280;11256;50.830;12.834;2023-07-30T18:34:01;97378.91;;;23.56;47.41
22181;BME280;11256;50.830;12.834;2023-07-30T18:39:02;97390.53;;;23.42;47.30
22181;BME280;11256;50.830;12.834;2023-07-30T18:44:04;97399.09;;;23.34;47.76
22181;BME280;11256;50.830;12.834;2023-07-30T18:49:04;97390.22;;;23.25;48.10
22181;BME280;11256;50.830;12.834;2023-07-30T18:54:05;97397.91;;;23.12;48.01
22181;BME280;11256;50.830;12.834;2023-07-30T18:59:05;97396.91;;;23.01;47.98
22181;BME280;11256;50.830;12.834;2023-07-30T19:04:05;97407.34;;;22.89;48.21
22181;BME280;11256;50.830;12.834;2023-07-30T19:09:06;97419.34;;;22.77;48.38
22181;BME280;11256;50.830;12.834;2023-07-30T19:14:06;97429.41;;;22.66;48.51
22181;BME280;11256;50.830;12.834;2023-07-30T19:19:07;97418.16;;;22.56;48.62
22181;BME280;11256;50.830;12.834;2023-07-30T19:24:07;97411.88;;;22.40;48.73
22181;BME280;11256;50.830;12.834;2023-07-30T19:29:07;97417.81;;;22.23;48.61
22181;BME280;11256;50.830;12.834;2023-07-30T19:34:12;97406.03;;;22.07;49.05
22181;BME280;11256;50.830;12.834;2023-07-30T19:39:13;97418.66;;;22.08;49.36
22181;BME280;11256;50.830;12.834;2023-07-30T19:44:13;97416.03;;;21.96;49.59
22181;BME280;11256;50.830;12.834;2023-07-30T19:49:13;97413.75;;;21.82;49.55
22181;BME280;11256;50.830;12.834;2023-07-30T19:54:14;97420.25;;;21.74;50.05
22181;BME280;11256;50.830;12.834;2023-07-30T19:59:14;97423.91;;;21.63;50.21
22181;BME280;11256;50.830;12.834;2023-07-30T20:04:15;97418.94;;;21.53;50.08
22181;BME280;11256;50.830;12.834;2023-07-30T20:09:15;97425.00;;;21.43;50.67
22181;BME280;11256;50.830;12.834;2023-07-30T20:14:15;97429.59;;;21.39;50.77
22181;BME280;11256;50.830;12.834;2023-07-30T20:19:16;97425.16;;;21.34;50.68
22181;BME280;11256;50.830;12.834;2023-07-30T20:24:17;97427.66;;;21.24;50.96
22181;BME280;11256;50.830;12.834;2023-07-30T20:29:18;97424.44;;;21.22;50.88
22181;BME280;11256;50.830;12.834;2023-07-30T20:34:20;97431.38;;;21.16;50.86
22181;BME280;11256;50.830;12.834;2023-07-30T20:39:20;97437.97;;;21.11;50.98
22181;BME280;11256;50.830;12.834;2023-07-30T20:44:20;97438.16;;;21.03;50.94
22181;BME280;11256;50.830;12.834;2023-07-30T20:49:21;97433.66;;;20.98;51.39
22181;BME280;11256;50.830;12.834;2023-07-30T20:54:21;97440.94;;;20.91;51.30
22181;BME280;11256;50.830;12.834;2023-07-30T20:59:21;97440.81;;;20.87;51.31
22181;BME280;11256;50.830;12.834;2023-07-30T21:04:22;97432.03;;;20.82;51.43
22181;BME280;11256;50.830;12.834;2023-07-30T21:09:23;97432.19;;;20.73;51.42
22181;BME280;11256;50.830;12.834;2023-07-30T21:14:23;97432.34;;;20.65;51.72
22181;BME280;11256;50.830;12.834;2023-07-30T21:19:24;97441.53;;;20.57;51.49
22181;BME280;11256;50.830;12.834;2023-07-30T21:24:25;97440.91;;;20.48;51.55
22181;BME280;11256;50.830;12.834;2023-07-30T21:29:26;97440.34;;;20.42;51.91
22181;BME280;11256;50.830;12.834;2023-07-30T21:34:26;97438.56;;;20.34;51.93
22181;BME280;11256;50.830;12.834;2023-07-30T21:39:26;97438.44;;;20.31;51.98
22181;BME280;11256;50.830;12.834;2023-07-30T21:44:27;97435.03;;;20.22;52.07
22181;BME280;11256;50.830;12.834;2023-07-30T21:49:28;97440.44;;;20.18;52.11
22181;BME280;11256;50.830;12.834;2023-07-30T21:54:28;97441.00;;;20.12;51.91
22181;BME280;11256;50.830;12.834;2023-07-30T21:59:29;97429.78;;;20.05;51.99
22181;BME280;11256;50.830;12.834;2023-07-30T22:04:29;97432.38;;;20.01;52.13
22181;BME280;11256;50.830;12.834;2023-07-30T22:09:30;97431.41;;;19.94;52.19
22181;BME280;11256;50.830;12.834;2023-07-30T22:14:31;97430.72;;;19.85;52.41
22181;BME280;11256;50.830;12.834;2023-07-30T22:19:32;97429.81;;;19.81;52.22
22181;BME280;11256;50.830;12.834;2023-07-30T22:24:32;97434.38;;;19.77;52.66
22181;BME280;11256;50.830;12.834;2023-07-30T22:29:33;97433.84;;;19.71;52.39
22181;BME280;11256;50.830;12.834;2023-07-30T22:34:33;97426.16;;;19.65;52.70
22181;BME280;11256;50.830;12.834;2023-07-30T22:39:33;97418.72;;;19.53;52.57
22181;BME280;11256;50.830;12.834;2023-07-30T22:44:34;97426.16;;;19.53;52.63
22181;BME280;11256;50.830;12.834;2023-07-30T22:49:34;97423.19;;;19.46;52.89
22181;BME280;11256;50.830;12.834;2023-07-30T22:54:35;97413.69;;;19.43;53.00
22181;BME280;11256;50.830;12.834;2023-07-30T22:59:35;97419.75;;;19.37;52.92
22181;BME280;11256;50.830;12.834;2023-07-30T23:04:35;97414.94;;;19.34;53.12
22181;BME280;11256;50.830;12.834;2023-07-30T23:09:36;97423.41;;;19.29;53.17
22181;BME280;11256;50.830;12.834;2023-07-30T23:14:36;97415.75;;;19.22;53.15
22181;BME280;11256;50.830;12.834;2023-07-30T23:19:36;97413.06;;;19.14;53.25
22181;BME280;11256;50.830;12.834;2023-07-30T23:24:37;97413.97;;;19.06;53.56
22181;BME280;11256;50.830;12.834;2023-07-30T23:29:37;97409.72;;;18.96;53.61
22181;BME280;11256;50.830;12.834;2023-07-30T23:34:38;97410.53;;;18.97;53.61
22181;BME280;11256;50.830;12.834;2023-07-30T23:39:38;97401.81;;;18.95;53.76
22181;BME280;11256;50.830;12.834;2023-07-30T23:44:39;97396.53;;;18.90;53.83
22181;BME280;11256;50.830;12.834;2023-07-30T23:49:39;97398.38;;;18.86;53.90
22181;BME280;11256;50.830;12.834;2023-07-30T23:54:39;97398.13;;;18.79;54.01
22181;BME280;11256;50.830;12.834;2023-07-30T23:59:40;97389.53;;;18.68;54.14
